Nearby METAR Reports

 

EGQS - Lossiemouth Raf, United Kingdom
Distance from station: NW 60mi, 97km
Updated: 23/04/2019 14:50
Overcast
Overcast
 Wind from ESE
Wind: ESE 26 mph , 43 km/h
Temperature: 16°C
Dew Point: 5°C
Humidity: 48%
Barometer: 1002 hPa
Clouds: Overcast
Visibility: 6 miles , 10 km
Cloud details: Few Clouds 1219 m
Partly cloudy 4572 m
Overcast 7620 m
2019/04/23 13:50 EGQS 231350Z 12023KT 9999 FEW040 SCT150 OVC250 16/05 Q1002 BLU NOSIG